createdAt,value
2023-03-06T00:02:57.003Z,382.63
2023-03-06T00:06:04.189Z,206.78
2023-03-06T00:09:10.754Z,208.45
2023-03-06T00:12:17.526Z,298.80
2023-03-06T00:15:24.255Z,238.56
2023-03-06T00:18:33.672Z,259.82
2023-03-06T00:21:39.664Z,281.72
2023-03-06T00:24:47.317Z,297.38
2023-03-06T00:27:53.937Z,496.86
2023-03-06T00:31:01.423Z,344.72
2023-03-06T00:34:11.750Z,255.52
2023-03-06T00:37:19.325Z,254.32
2023-03-06T00:40:25.564Z,257.45
2023-03-06T00:43:33.025Z,262.00
2023-03-06T00:46:39.379Z,260.25
2023-03-06T00:49:48.735Z,251.40
2023-03-06T00:52:54.609Z,240.07
2023-03-06T00:56:01.263Z,226.55
2023-03-06T00:59:08.674Z,238.91
2023-03-06T01:02:15.612Z,247.38
2023-03-06T01:05:24.979Z,268.98
2023-03-06T01:08:31.704Z,287.60
2023-03-06T01:11:37.474Z,303.87
2023-03-06T01:14:44.182Z,312.75
2023-03-06T01:17:50.199Z,306.48
2023-03-06T01:20:59.369Z,306.79
2023-03-06T01:24:05.182Z,325.37
2023-03-06T01:27:12.192Z,338.63
2023-03-06T01:30:18.578Z,371.01
2023-03-06T01:33:25.467Z,390.49
2023-03-06T01:36:33.945Z,368.89
2023-03-06T01:39:42.488Z,365.97
2023-03-06T01:42:48.343Z,366.19
2023-03-06T01:46:42.395Z,348.64
2023-03-06T01:49:48.261Z,343.73
2023-03-06T01:53:03.985Z,333.74
2023-03-06T01:56:11.171Z,335.04
2023-03-06T01:59:19.479Z,351.84
2023-03-06T02:02:25.966Z,380.49
2023-03-06T02:05:32.848Z,396.96
2023-03-06T02:08:43.107Z,401.17
2023-03-06T02:11:49.833Z,405.08
2023-03-06T02:14:56.783Z,370.31
2023-03-06T02:18:04.176Z,354.80
2023-03-06T02:21:13.171Z,344.50
2023-03-06T02:24:40.522Z,385.80
2023-03-06T02:27:49.241Z,359.52
2023-03-06T02:30:59.940Z,300.77
2023-03-06T02:34:31.202Z,288.28
2023-03-06T02:37:37.879Z,285.24
2023-03-06T02:40:49.978Z,278.30
2023-03-06T02:43:59.361Z,286.70
2023-03-06T02:47:05.230Z,290.08
2023-03-06T02:50:13.647Z,273.03
2023-03-06T02:53:22.541Z,274.05
2023-03-06T02:56:29.133Z,278.96
2023-03-06T02:59:38.775Z,277.39
2023-03-06T03:02:47.057Z,276.43
2023-03-06T03:05:52.949Z,284.21
2023-03-06T03:09:04.070Z,292.56
2023-03-06T03:12:11.365Z,292.20
2023-03-06T03:15:22.124Z,329.61
2023-03-06T03:18:27.893Z,335.96
2023-03-06T03:21:34.755Z,325.27
2023-03-06T03:24:40.641Z,288.38
2023-03-06T03:27:47.445Z,277.31
2023-03-06T03:30:55.978Z,287.08
2023-03-06T03:34:04.844Z,291.35
2023-03-06T03:37:14.169Z,311.02
2023-03-06T03:40:22.696Z,305.96
2023-03-06T03:43:29.988Z,301.73
2023-03-06T03:46:41.371Z,315.73
2023-03-06T03:49:52.152Z,299.87
2023-03-06T03:53:00.225Z,288.82
2023-03-06T03:56:06.837Z,275.27
2023-03-06T03:59:18.819Z,269.50
2023-03-06T04:02:38.148Z,257.82
2023-03-06T04:05:54.107Z,252.03
2023-03-06T04:09:00.434Z,251.88
2023-03-06T04:12:08.960Z,248.78
2023-03-06T04:15:16.302Z,245.23
2023-03-06T04:18:27.487Z,275.67
2023-03-06T04:21:37.900Z,298.73
2023-03-06T04:24:45.785Z,280.58
2023-03-06T04:27:52.361Z,262.89
2023-03-06T04:30:59.135Z,288.72
2023-03-06T04:34:07.873Z,357.37
2023-03-06T04:37:24.283Z,286.69
2023-03-06T04:40:34.805Z,274.03
2023-03-06T04:43:41.807Z,271.98
2023-03-06T04:46:47.610Z,297.71
2023-03-06T04:49:56.964Z,316.81
2023-03-06T04:53:04.929Z,325.61
2023-03-06T04:56:12.070Z,305.31
2023-03-06T04:59:17.841Z,271.68
2023-03-06T05:02:24.862Z,252.17
2023-03-06T05:05:33.983Z,253.96
2023-03-06T05:08:40.544Z,256.84
2023-03-06T05:11:46.312Z,258.10
2023-03-06T05:14:52.925Z,220.75
2023-03-06T05:17:58.700Z,211.54
2023-03-06T05:21:09.303Z,213.14
2023-03-06T05:24:15.206Z,219.83
2023-03-06T05:27:21.893Z,208.81
2023-03-06T05:30:28.146Z,240.13
2023-03-06T05:33:35.516Z,257.41
2023-03-06T05:36:44.635Z,278.29
2023-03-06T05:39:51.306Z,271.82
2023-03-06T05:42:57.071Z,274.41
2023-03-06T05:46:05.725Z,272.01
2023-03-06T05:49:11.848Z,275.16
2023-03-06T05:52:21.494Z,265.45
2023-03-06T05:55:29.801Z,235.17
2023-03-06T05:58:38.022Z,225.88
2023-03-06T06:01:43.964Z,224.64
2023-03-06T06:04:51.268Z,221.80
2023-03-06T06:07:59.650Z,220.25
2023-03-06T06:11:12.322Z,216.77
2023-03-06T06:14:31.220Z,216.31
2023-03-06T06:23:26.874Z,233.87
2023-03-06T06:27:10.552Z,234.16
2023-03-06T06:30:48.847Z,234.76
2023-03-06T06:34:25.987Z,252.23
2023-03-06T06:38:05.998Z,256.40
2023-03-06T06:42:11.026Z,261.68
2023-03-06T06:45:34.549Z,252.63
2023-03-06T06:48:41.127Z,278.10
2023-03-06T06:51:47.029Z,289.94
2023-03-06T06:54:53.853Z,276.77
2023-03-06T06:58:02.225Z,282.83
2023-03-06T07:01:10.329Z,276.31
2023-03-06T07:04:16.920Z,259.54
2023-03-06T07:07:25.416Z,241.25
2023-03-06T07:10:32.052Z,223.56
2023-03-06T07:13:41.623Z,211.07
2023-03-06T07:16:47.364Z,206.87
2023-03-06T07:19:53.996Z,199.49
2023-03-06T07:22:59.830Z,202.40
2023-03-06T07:26:07.060Z,195.75
2023-03-06T07:29:15.494Z,196.37
2023-03-06T07:32:22.089Z,202.68
2023-03-06T07:35:29.894Z,199.83
2023-03-06T07:38:36.570Z,213.22
2023-03-06T07:41:42.420Z,216.66
2023-03-06T07:44:51.650Z,209.65
2023-03-06T07:47:57.826Z,195.48
2023-03-06T07:51:10.282Z,197.55
2023-03-06T07:54:16.193Z,209.97
2023-03-06T07:57:22.929Z,206.23
2023-03-06T08:00:31.495Z,213.43
2023-03-06T08:03:41.364Z,216.13
2023-03-06T08:06:47.134Z,188.16
2023-03-06T08:09:53.946Z,195.06
2023-03-06T08:13:00.021Z,186.30
2023-03-06T08:16:10.674Z,171.72
2023-03-06T08:19:16.518Z,160.81
2023-03-06T08:22:23.884Z,156.58
2023-03-06T08:25:29.742Z,160.86
2023-03-06T08:28:37.022Z,165.12
2023-03-06T08:31:48.663Z,162.58
2023-03-06T08:34:56.131Z,149.51
2023-03-06T08:38:02.045Z,142.46
2023-03-06T08:41:08.841Z,133.93
2023-03-06T08:44:15.667Z,135.85
2023-03-06T08:47:24.915Z,141.68
2023-03-06T08:50:30.862Z,138.78
2023-03-06T08:53:43.084Z,134.50
2023-03-06T08:56:49.527Z,136.27
2023-03-06T08:59:56.079Z,134.09
2023-03-06T09:03:04.584Z,123.80
2023-03-06T09:06:11.262Z,132.34
2023-03-06T09:09:18.291Z,129.39
2023-03-06T09:12:24.031Z,115.91
2023-03-06T09:15:30.690Z,116.77
2023-03-06T09:18:39.659Z,122.75
2023-03-06T09:21:46.280Z,124.02
2023-03-06T09:24:52.659Z,113.45
2023-03-06T09:28:10.890Z,111.16
2023-03-06T09:31:21.786Z,117.49
2023-03-06T09:34:31.007Z,113.81
2023-03-06T09:37:37.247Z,122.79
2023-03-06T09:44:21.492Z,126.01
2023-03-06T09:47:50.595Z,129.88
2023-03-06T09:51:13.128Z,133.73
2023-03-06T09:54:24.064Z,124.28
2023-03-06T09:57:36.252Z,125.29
2023-03-06T10:00:54.442Z,112.46
2023-03-06T10:04:27.094Z,111.93
2023-03-06T10:07:49.895Z,119.47
2023-03-06T10:11:05.707Z,133.28
2023-03-06T10:14:26.763Z,127.54
2023-03-06T10:17:41.648Z,120.94
2023-03-06T10:21:16.978Z,105.02
2023-03-06T10:24:56.232Z,106.31
2023-03-06T10:28:18.562Z,101.24
2023-03-06T10:31:29.419Z,95.06
2023-03-06T10:34:44.379Z,88.73
2023-03-06T10:37:51.902Z,97.95
2023-03-06T10:41:19.609Z,82.19
2023-03-06T10:44:29.110Z,80.18
2023-03-06T10:47:37.765Z,87.23
2023-03-06T10:50:43.771Z,80.07
2023-03-06T10:53:58.996Z,72.68
2023-03-06T10:57:32.891Z,72.18
2023-03-06T11:00:39.679Z,74.16
2023-03-06T11:03:45.706Z,75.41
2023-03-06T11:07:08.480Z,77.75
2023-03-06T11:10:23.832Z,73.78
2023-03-06T11:13:36.178Z,79.39
2023-03-06T11:16:42.746Z,63.86
2023-03-06T11:19:49.417Z,68.45
2023-03-06T11:23:03.209Z,62.15
2023-03-06T11:26:32.596Z,71.95
2023-03-06T11:29:46.294Z,79.16
2023-03-06T11:33:02.026Z,80.61
2023-03-06T11:36:21.553Z,91.78
2023-03-06T11:39:39.836Z,78.60
2023-03-06T11:42:59.102Z,79.27
2023-03-06T11:46:22.977Z,63.23
2023-03-06T11:49:41.479Z,55.39
2023-03-06T11:52:56.743Z,83.27
2023-03-06T11:56:23.025Z,82.50
2023-03-06T12:00:24.301Z,68.39
2023-03-06T12:04:16.753Z,76.82
2023-03-06T12:07:35.085Z,73.59
2023-03-06T12:10:52.441Z,66.44
2023-03-06T12:14:25.887Z,63.84
2023-03-06T12:17:57.857Z,53.63
2023-03-06T12:21:23.375Z,46.73
2023-03-06T12:25:21.294Z,44.19
2023-03-06T12:29:05.608Z,53.46
2023-03-06T12:32:30.651Z,55.55
2023-03-06T12:36:17.114Z,55.75
2023-03-06T12:39:45.047Z,50.60
2023-03-06T12:43:40.587Z,41.72
2023-03-06T12:46:54.888Z,48.45
2023-03-06T12:50:10.471Z,53.11
2023-03-06T12:53:30.500Z,60.79
2023-03-06T12:56:38.758Z,50.89
2023-03-06T12:59:48.837Z,55.98
2023-03-06T13:03:21.589Z,59.39
2023-03-06T13:07:05.688Z,62.66
2023-03-06T13:10:25.668Z,70.02
2023-03-06T13:13:37.227Z,73.59
2023-03-06T13:16:43.898Z,78.39
2023-03-06T13:19:50.902Z,77.41
2023-03-06T13:22:57.836Z,70.32
2023-03-06T13:26:12.783Z,77.24
2023-03-06T13:29:55.762Z,84.63
2023-03-06T13:33:01.639Z,142.50
2023-03-06T13:36:27.096Z,181.45
2023-03-06T13:40:29.625Z,86.66
2023-03-06T13:43:45.665Z,85.42
2023-03-06T13:47:02.740Z,80.10
2023-03-06T13:50:38.382Z,80.14
2023-03-06T13:54:30.742Z,85.81
2023-03-06T13:58:04.076Z,93.71
2023-03-06T14:01:43.070Z,96.01
2023-03-06T14:05:00.743Z,94.64
2023-03-06T14:08:17.564Z,105.90
2023-03-06T14:11:25.026Z,113.60
2023-03-06T14:14:45.442Z,98.38
2023-03-06T14:18:03.433Z,135.77
2023-03-06T14:21:15.990Z,75.68
2023-03-06T14:24:34.562Z,62.81
2023-03-06T14:27:56.325Z,79.11
2023-03-06T14:31:08.849Z,91.33
2023-03-06T14:34:26.758Z,100.56
2023-03-06T14:37:35.094Z,86.24
2023-03-06T14:40:48.624Z,96.96
2023-03-06T14:44:10.022Z,134.09
2023-03-06T14:47:28.722Z,162.05
2023-03-06T14:50:41.021Z,157.82
2023-03-06T14:53:49.847Z,111.24
2023-03-06T14:57:06.144Z,96.69
2023-03-06T15:00:24.199Z,98.33
2023-03-06T15:03:45.416Z,107.41
2023-03-06T15:06:56.925Z,94.03
2023-03-06T15:10:10.535Z,96.60
2023-03-06T15:13:26.268Z,99.39
2023-03-06T15:16:34.973Z,102.73
2023-03-06T15:19:43.380Z,113.49
2023-03-06T15:22:54.165Z,139.42
2023-03-06T15:26:03.898Z,130.28
2023-03-06T15:29:26.665Z,187.25
2023-03-06T15:32:42.619Z,140.64
2023-03-06T15:35:58.924Z,164.76
2023-03-06T15:39:41.354Z,205.47
2023-03-06T15:42:50.120Z,151.26
2023-03-06T15:46:03.580Z,223.22
2023-03-06T15:49:20.768Z,223.95
2023-03-06T15:52:27.536Z,282.12
2023-03-06T15:55:36.885Z,225.68
2023-03-06T15:58:44.777Z,208.96
2023-03-06T16:01:53.244Z,234.42
2023-03-06T16:05:02.558Z,241.86
2023-03-06T16:08:11.030Z,240.69
2023-03-06T16:11:35.340Z,218.98
2023-03-06T16:14:50.757Z,260.30
2023-03-06T16:17:56.747Z,385.22
2023-03-06T16:21:03.597Z,304.71
2023-03-06T16:24:09.865Z,345.75
2023-03-06T16:27:25.719Z,355.69
2023-03-06T16:30:35.704Z,328.02
2023-03-06T16:33:42.596Z,462.29
2023-03-06T16:36:50.299Z,661.73
2023-03-06T16:39:56.840Z,2530.09
2023-03-06T16:43:05.278Z,6953.73
2023-03-06T16:46:20.612Z,5466.71
2023-03-06T16:49:27.953Z,4939.32
2023-03-06T16:52:34.871Z,8323.69
2023-03-06T16:55:40.808Z,4878.08
2023-03-06T16:58:52.023Z,1958.66
2023-03-06T17:01:57.855Z,797.76
2023-03-06T17:05:04.644Z,808.47
2023-03-06T17:08:10.670Z,562.89
2023-03-06T17:11:18.118Z,605.72
2023-03-06T17:14:26.591Z,1377.70
2023-03-06T17:17:33.237Z,655.76
2023-03-06T17:20:39.085Z,680.35
2023-03-06T17:23:47.042Z,279.70
2023-03-06T17:26:53.048Z,283.29
2023-03-06T17:30:04.480Z,310.54
2023-03-06T17:33:10.312Z,291.39
2023-03-06T17:36:19.548Z,314.73
2023-03-06T17:39:26.027Z,261.82
2023-03-06T17:42:32.689Z,278.47
2023-03-06T17:45:41.999Z,210.22
2023-03-06T17:48:49.655Z,194.08
2023-03-06T17:51:56.640Z,221.97
2023-03-06T17:55:03.203Z,211.55
2023-03-06T18:01:21.641Z,228.57
2023-03-06T18:04:28.661Z,253.61
2023-03-06T18:07:34.476Z,264.50
2023-03-06T18:10:43.514Z,260.20
2023-03-06T18:13:49.323Z,342.33
2023-03-06T18:16:58.508Z,1869.85
2023-03-06T18:20:04.627Z,2981.78
2023-03-06T18:23:11.903Z,978.76
2023-03-06T18:26:21.007Z,330.82
2023-03-06T18:29:27.711Z,883.70
2023-03-06T18:32:36.212Z,371.60
2023-03-06T18:35:44.214Z,289.50
2023-03-06T18:38:50.190Z,284.54
2023-03-06T18:41:56.896Z,891.80
2023-03-06T18:45:03.236Z,875.78
2023-03-06T18:48:12.575Z,523.15
2023-03-06T18:51:20.376Z,255.95
2023-03-06T18:54:28.748Z,232.66
2023-03-06T18:57:34.595Z,269.95
2023-03-06T19:00:41.218Z,240.91
2023-03-06T19:03:53.133Z,215.74
2023-03-06T19:06:59.845Z,219.66
2023-03-06T19:10:06.149Z,213.29
2023-03-06T19:13:14.225Z,220.13
2023-03-06T19:16:23.266Z,235.23
2023-03-06T19:19:32.721Z,243.72
2023-03-06T19:22:38.601Z,249.42
2023-03-06T19:25:45.437Z,245.14
2023-03-06T19:28:56.570Z,246.02
2023-03-06T19:32:04.428Z,254.80
2023-03-06T19:35:13.850Z,270.71
2023-03-06T19:38:21.026Z,270.21
2023-03-06T19:41:28.157Z,284.38
2023-03-06T19:44:35.692Z,274.69
2023-03-06T19:47:41.682Z,279.46
2023-03-06T19:50:52.464Z,299.69
2023-03-06T19:53:59.817Z,284.62
2023-03-06T19:57:06.870Z,268.23
2023-03-06T20:00:16.228Z,269.21
2023-03-06T20:03:22.863Z,278.39
2023-03-06T20:06:36.809Z,274.67
2023-03-06T20:09:44.025Z,283.42
2023-03-06T20:12:55.144Z,280.31
2023-03-06T20:16:06.292Z,268.77
2023-03-06T20:19:13.924Z,259.25
2023-03-06T20:22:23.598Z,267.66
2023-03-06T20:25:29.989Z,279.65
2023-03-06T20:28:38.077Z,273.50
2023-03-06T20:31:45.627Z,282.46
2023-03-06T20:34:55.369Z,283.56
2023-03-06T20:38:04.151Z,263.45
2023-03-06T20:41:18.573Z,261.71
2023-03-06T20:44:24.405Z,275.80
2023-03-06T20:47:32.883Z,312.85
2023-03-06T20:50:39.022Z,386.77
2023-03-06T20:53:50.838Z,400.82
2023-03-06T20:56:58.235Z,355.82
2023-03-06T21:00:05.412Z,324.58
2023-03-06T21:03:11.355Z,378.10
2023-03-06T21:06:18.907Z,339.94
2023-03-06T21:09:27.268Z,325.49
2023-03-06T21:12:36.429Z,344.52
2023-03-06T21:15:42.702Z,348.73
2023-03-06T21:18:50.277Z,312.79
2023-03-06T21:21:56.328Z,298.66
2023-03-06T21:25:05.558Z,279.25
2023-03-06T21:28:11.307Z,265.70
2023-03-06T21:31:22.197Z,271.01
2023-03-06T21:34:28.347Z,280.94
2023-03-06T21:37:35.283Z,297.86
2023-03-06T21:40:45.525Z,298.65
2023-03-06T21:43:52.106Z,299.26
2023-03-06T21:46:57.796Z,276.76
2023-03-06T21:50:04.352Z,261.69
2023-03-06T21:53:12.463Z,291.78
2023-03-06T21:56:25.486Z,293.54
2023-03-06T21:59:31.425Z,309.99
2023-03-06T22:02:38.500Z,330.99
2023-03-06T22:05:44.786Z,338.15
2023-03-06T22:08:51.855Z,345.19
2023-03-06T22:12:00.393Z,339.78
2023-03-06T22:15:09.560Z,337.55
2023-03-06T22:18:16.054Z,319.26
2023-03-06T22:21:26.057Z,306.67
2023-03-06T22:24:31.881Z,306.17
2023-03-06T22:27:41.152Z,312.55
2023-03-06T22:30:46.891Z,304.59
2023-03-06T22:33:55.343Z,297.34
2023-03-06T22:37:01.328Z,302.65
2023-03-06T22:40:09.809Z,301.85
2023-03-06T22:43:20.164Z,308.09
2023-03-06T22:46:27.974Z,326.54
2023-03-06T22:49:33.818Z,323.58
2023-03-06T22:52:40.460Z,319.20
2023-03-06T22:55:46.272Z,314.83
2023-03-06T22:58:55.585Z,302.77
2023-03-06T23:02:01.441Z,261.20
2023-03-06T23:05:09.833Z,248.10
2023-03-06T23:08:17.307Z,240.62
2023-03-06T23:11:26.001Z,245.07
2023-03-06T23:14:53.182Z,245.72
2023-03-06T23:18:18.213Z,254.50
2023-03-06T23:21:43.028Z,289.72
2023-03-06T23:25:09.745Z,308.29
2023-03-06T23:28:15.801Z,317.96
2023-03-06T23:31:28.737Z,321.23
2023-03-06T23:34:34.746Z,344.83
2023-03-06T23:37:42.830Z,344.53
2023-03-06T23:40:49.755Z,333.66
2023-03-06T23:43:56.642Z,326.41
2023-03-06T23:47:05.651Z,320.44
2023-03-06T23:50:14.203Z,324.61
2023-03-06T23:53:20.645Z,317.24
2023-03-06T23:56:27.920Z,330.30
2023-03-06T23:59:33.764Z,330.62
